sensor_id;sensor_type;location;lat;lon;timestamp;P1;durP1;ratioP1;P2;durP2;ratioP2
8100;SDS011;4093;53.470;9.832;2023-04-25T00:00:21;6.47;;;5.17;;
8100;SDS011;4093;53.470;9.832;2023-04-25T00:02:49;7.67;;;5.33;;
8100;SDS011;4093;53.470;9.832;2023-04-25T00:05:17;8.33;;;4.97;;
8100;SDS011;4093;53.470;9.832;2023-04-25T00:07:45;8.23;;;5.13;;
8100;SDS011;4093;53.470;9.832;2023-04-25T00:10:14;6.90;;;4.87;;
8100;SDS011;4093;53.470;9.832;2023-04-25T00:12:43;8.87;;;4.63;;
8100;SDS011;4093;53.470;9.832;2023-04-25T00:15:11;8.97;;;4.57;;
8100;SDS011;4093;53.470;9.832;2023-04-25T00:17:39;9.00;;;5.00;;
8100;SDS011;4093;53.470;9.832;2023-04-25T00:20:07;16.47;;;5.03;;
8100;SDS011;4093;53.470;9.832;2023-04-25T00:22:36;17.77;;;5.20;;
8100;SDS011;4093;53.470;9.832;2023-04-25T00:25:04;10.77;;;4.87;;
8100;SDS011;4093;53.470;9.832;2023-04-25T00:27:32;14.20;;;5.33;;
8100;SDS011;4093;53.470;9.832;2023-04-25T00:30:02;18.77;;;5.17;;
8100;SDS011;4093;53.470;9.832;2023-04-25T00:32:30;14.57;;;5.50;;
8100;SDS011;4093;53.470;9.832;2023-04-25T00:34:57;15.20;;;6.10;;
8100;SDS011;4093;53.470;9.832;2023-04-25T00:37:25;13.80;;;4.27;;
8100;SDS011;4093;53.470;9.832;2023-04-25T00:39:53;23.33;;;5.50;;
8100;SDS011;4093;53.470;9.832;2023-04-25T00:42:22;14.67;;;5.47;;
8100;SDS011;4093;53.470;9.832;2023-04-25T00:44:49;15.13;;;5.40;;
8100;SDS011;4093;53.470;9.832;2023-04-25T00:47:20;14.23;;;5.17;;
8100;SDS011;4093;53.470;9.832;2023-04-25T00:49:48;18.33;;;6.00;;
8100;SDS011;4093;53.470;9.832;2023-04-25T00:52:16;19.23;;;5.80;;
8100;SDS011;4093;53.470;9.832;2023-04-25T00:54:44;18.73;;;5.43;;
8100;SDS011;4093;53.470;9.832;2023-04-25T00:57:11;19.77;;;6.00;;
8100;SDS011;4093;53.470;9.832;2023-04-25T00:59:40;20.27;;;6.10;;
8100;SDS011;4093;53.470;9.832;2023-04-25T01:02:12;18.93;;;5.17;;
8100;SDS011;4093;53.470;9.832;2023-04-25T01:04:42;15.90;;;5.23;;
8100;SDS011;4093;53.470;9.832;2023-04-25T01:07:09;19.27;;;5.87;;
8100;SDS011;4093;53.470;9.832;2023-04-25T01:09:37;17.90;;;6.17;;
8100;SDS011;4093;53.470;9.832;2023-04-25T01:12:05;17.53;;;5.90;;
8100;SDS011;4093;53.470;9.832;2023-04-25T01:14:33;19.63;;;5.17;;
8100;SDS011;4093;53.470;9.832;2023-04-25T01:17:01;24.43;;;5.20;;
8100;SDS011;4093;53.470;9.832;2023-04-25T01:19:28;20.97;;;5.90;;
8100;SDS011;4093;53.470;9.832;2023-04-25T01:21:58;26.33;;;5.93;;
8100;SDS011;4093;53.470;9.832;2023-04-25T01:24:26;21.70;;;5.53;;
8100;SDS011;4093;53.470;9.832;2023-04-25T01:26:54;21.20;;;5.90;;
8100;SDS011;4093;53.470;9.832;2023-04-25T01:29:22;24.83;;;5.70;;
8100;SDS011;4093;53.470;9.832;2023-04-25T01:31:50;22.77;;;6.20;;
8100;SDS011;4093;53.470;9.832;2023-04-25T01:34:18;23.77;;;6.23;;
8100;SDS011;4093;53.470;9.832;2023-04-25T01:36:47;18.13;;;5.43;;
8100;SDS011;4093;53.470;9.832;2023-04-25T01:39:17;17.93;;;5.80;;
8100;SDS011;4093;53.470;9.832;2023-04-25T01:41:45;26.53;;;6.13;;
8100;SDS011;4093;53.470;9.832;2023-04-25T01:44:14;23.37;;;5.87;;
8100;SDS011;4093;53.470;9.832;2023-04-25T01:46:42;22.23;;;5.50;;
8100;SDS011;4093;53.470;9.832;2023-04-25T01:49:10;24.83;;;6.97;;
8100;SDS011;4093;53.470;9.832;2023-04-25T01:51:38;19.70;;;6.67;;
8100;SDS011;4093;53.470;9.832;2023-04-25T01:54:05;23.57;;;6.70;;
8100;SDS011;4093;53.470;9.832;2023-04-25T01:56:36;18.60;;;5.63;;
8100;SDS011;4093;53.470;9.832;2023-04-25T01:59:04;21.63;;;5.93;;
8100;SDS011;4093;53.470;9.832;2023-04-25T02:01:32;22.53;;;5.63;;
8100;SDS011;4093;53.470;9.832;2023-04-25T02:04:00;28.50;;;6.37;;
8100;SDS011;4093;53.470;9.832;2023-04-25T02:06:28;17.80;;;5.33;;
8100;SDS011;4093;53.470;9.832;2023-04-25T02:08:57;16.03;;;5.03;;
8100;SDS011;4093;53.470;9.832;2023-04-25T02:11:24;19.47;;;5.93;;
8100;SDS011;4093;53.470;9.832;2023-04-25T02:13:53;19.00;;;5.17;;
8100;SDS011;4093;53.470;9.832;2023-04-25T02:16:21;25.07;;;5.73;;
8100;SDS011;4093;53.470;9.832;2023-04-25T02:18:49;21.47;;;5.60;;
8100;SDS011;4093;53.470;9.832;2023-04-25T02:21:19;20.67;;;5.33;;
8100;SDS011;4093;53.470;9.832;2023-04-25T02:23:46;22.50;;;6.10;;
8100;SDS011;4093;53.470;9.832;2023-04-25T02:26:16;21.07;;;5.80;;
8100;SDS011;4093;53.470;9.832;2023-04-25T02:28:43;21.70;;;5.50;;
8100;SDS011;4093;53.470;9.832;2023-04-25T02:31:12;25.73;;;6.33;;
8100;SDS011;4093;53.470;9.832;2023-04-25T02:33:40;15.07;;;4.93;;
8100;SDS011;4093;53.470;9.832;2023-04-25T02:36:08;22.47;;;5.10;;
8100;SDS011;4093;53.470;9.832;2023-04-25T02:38:36;21.57;;;5.60;;
8100;SDS011;4093;53.470;9.832;2023-04-25T02:41:03;20.13;;;5.70;;
8100;SDS011;4093;53.470;9.832;2023-04-25T02:43:31;20.20;;;5.63;;
8100;SDS011;4093;53.470;9.832;2023-04-25T02:45:59;17.50;;;5.50;;
8100;SDS011;4093;53.470;9.832;2023-04-25T02:48:28;21.77;;;5.87;;
8100;SDS011;4093;53.470;9.832;2023-04-25T02:50:56;20.77;;;5.57;;
8100;SDS011;4093;53.470;9.832;2023-04-25T02:53:24;26.57;;;6.17;;
8100;SDS011;4093;53.470;9.832;2023-04-25T02:55:51;15.30;;;5.27;;
8100;SDS011;4093;53.470;9.832;2023-04-25T02:58:19;16.20;;;5.50;;
8100;SDS011;4093;53.470;9.832;2023-04-25T03:00:47;18.80;;;6.37;;
8100;SDS011;4093;53.470;9.832;2023-04-25T03:03:15;20.27;;;5.10;;
8100;SDS011;4093;53.470;9.832;2023-04-25T03:05:45;18.47;;;5.47;;
8100;SDS011;4093;53.470;9.832;2023-04-25T03:08:13;13.60;;;4.63;;
8100;SDS011;4093;53.470;9.832;2023-04-25T03:10:41;17.50;;;5.30;;
8100;SDS011;4093;53.470;9.832;2023-04-25T03:13:09;17.03;;;5.07;;
8100;SDS011;4093;53.470;9.832;2023-04-25T03:15:37;28.27;;;5.60;;
8100;SDS011;4093;53.470;9.832;2023-04-25T03:18:05;15.97;;;4.90;;
8100;SDS011;4093;53.470;9.832;2023-04-25T03:20:32;26.07;;;4.97;;
8100;SDS011;4093;53.470;9.832;2023-04-25T03:23:02;13.90;;;4.80;;
8100;SDS011;4093;53.470;9.832;2023-04-25T03:25:29;16.27;;;5.37;;
8100;SDS011;4093;53.470;9.832;2023-04-25T03:27:57;18.93;;;5.43;;
8100;SDS011;4093;53.470;9.832;2023-04-25T03:30:25;17.93;;;5.43;;
8100;SDS011;4093;53.470;9.832;2023-04-25T03:32:52;19.93;;;5.10;;
8100;SDS011;4093;53.470;9.832;2023-04-25T03:35:20;20.40;;;5.20;;
8100;SDS011;4093;53.470;9.832;2023-04-25T03:37:51;16.63;;;4.63;;
8100;SDS011;4093;53.470;9.832;2023-04-25T03:40:20;18.30;;;5.50;;
8100;SDS011;4093;53.470;9.832;2023-04-25T03:42:48;16.70;;;5.37;;
8100;SDS011;4093;53.470;9.832;2023-04-25T03:45:16;13.37;;;4.63;;
8100;SDS011;4093;53.470;9.832;2023-04-25T03:47:44;20.87;;;5.43;;
8100;SDS011;4093;53.470;9.832;2023-04-25T03:50:11;14.13;;;4.43;;
8100;SDS011;4093;53.470;9.832;2023-04-25T03:52:39;17.43;;;4.80;;
8100;SDS011;4093;53.470;9.832;2023-04-25T03:55:07;15.10;;;4.37;;
8100;SDS011;4093;53.470;9.832;2023-04-25T03:57:37;25.60;;;5.17;;
8100;SDS011;4093;53.470;9.832;2023-04-25T04:00:05;15.33;;;5.00;;
8100;SDS011;4093;53.470;9.832;2023-04-25T04:02:34;21.47;;;5.07;;
8100;SDS011;4093;53.470;9.832;2023-04-25T04:05:04;13.20;;;4.90;;
8100;SDS011;4093;53.470;9.832;2023-04-25T04:07:32;24.07;;;4.70;;
8100;SDS011;4093;53.470;9.832;2023-04-25T04:10:02;22.47;;;5.30;;
8100;SDS011;4093;53.470;9.832;2023-04-25T04:12:31;13.53;;;4.90;;
8100;SDS011;4093;53.470;9.832;2023-04-25T04:15:00;16.33;;;5.17;;
8100;SDS011;4093;53.470;9.832;2023-04-25T04:17:29;16.73;;;5.17;;
8100;SDS011;4093;53.470;9.832;2023-04-25T04:19:57;19.53;;;5.27;;
8100;SDS011;4093;53.470;9.832;2023-04-25T04:22:25;18.77;;;4.97;;
8100;SDS011;4093;53.470;9.832;2023-04-25T04:24:52;14.37;;;4.47;;
8100;SDS011;4093;53.470;9.832;2023-04-25T04:27:21;20.57;;;5.00;;
8100;SDS011;4093;53.470;9.832;2023-04-25T04:29:49;19.43;;;5.53;;
8100;SDS011;4093;53.470;9.832;2023-04-25T04:32:19;19.60;;;4.90;;
8100;SDS011;4093;53.470;9.832;2023-04-25T04:34:49;17.03;;;4.57;;
8100;SDS011;4093;53.470;9.832;2023-04-25T04:37:18;16.57;;;5.53;;
8100;SDS011;4093;53.470;9.832;2023-04-25T04:39:46;15.77;;;4.73;;
8100;SDS011;4093;53.470;9.832;2023-04-25T04:42:13;13.47;;;4.50;;
8100;SDS011;4093;53.470;9.832;2023-04-25T04:44:41;15.33;;;4.57;;
8100;SDS011;4093;53.470;9.832;2023-04-25T04:47:10;17.63;;;5.47;;
8100;SDS011;4093;53.470;9.832;2023-04-25T04:49:40;13.50;;;5.00;;
8100;SDS011;4093;53.470;9.832;2023-04-25T04:52:07;15.80;;;4.13;;
8100;SDS011;4093;53.470;9.832;2023-04-25T04:54:35;16.33;;;5.17;;
8100;SDS011;4093;53.470;9.832;2023-04-25T04:57:03;10.50;;;4.43;;
8100;SDS011;4093;53.470;9.832;2023-04-25T04:59:31;13.10;;;4.97;;
8100;SDS011;4093;53.470;9.832;2023-04-25T05:01:58;15.90;;;4.43;;
8100;SDS011;4093;53.470;9.832;2023-04-25T05:04:26;18.30;;;3.90;;
8100;SDS011;4093;53.470;9.832;2023-04-25T05:06:55;19.00;;;4.30;;
8100;SDS011;4093;53.470;9.832;2023-04-25T05:09:23;13.70;;;4.60;;
8100;SDS011;4093;53.470;9.832;2023-04-25T05:11:51;17.23;;;4.67;;
8100;SDS011;4093;53.470;9.832;2023-04-25T05:14:20;19.20;;;5.33;;
8100;SDS011;4093;53.470;9.832;2023-04-25T05:16:48;15.07;;;5.00;;
8100;SDS011;4093;53.470;9.832;2023-04-25T05:19:15;17.13;;;4.97;;
8100;SDS011;4093;53.470;9.832;2023-04-25T05:21:43;19.07;;;5.43;;
8100;SDS011;4093;53.470;9.832;2023-04-25T05:24:12;18.03;;;4.83;;
8100;SDS011;4093;53.470;9.832;2023-04-25T05:26:40;18.57;;;4.37;;
8100;SDS011;4093;53.470;9.832;2023-04-25T05:29:08;13.47;;;4.47;;
8100;SDS011;4093;53.470;9.832;2023-04-25T05:31:36;14.07;;;4.47;;
8100;SDS011;4093;53.470;9.832;2023-04-25T05:34:04;13.80;;;4.20;;
8100;SDS011;4093;53.470;9.832;2023-04-25T05:36:31;11.67;;;3.77;;
8100;SDS011;4093;53.470;9.832;2023-04-25T05:38:59;8.30;;;4.33;;
8100;SDS011;4093;53.470;9.832;2023-04-25T05:41:28;16.57;;;4.33;;
8100;SDS011;4093;53.470;9.832;2023-04-25T05:43:56;13.77;;;3.80;;
8100;SDS011;4093;53.470;9.832;2023-04-25T05:46:24;17.30;;;4.63;;
8100;SDS011;4093;53.470;9.832;2023-04-25T05:48:52;14.73;;;4.20;;
8100;SDS011;4093;53.470;9.832;2023-04-25T05:51:20;13.57;;;4.60;;
8100;SDS011;4093;53.470;9.832;2023-04-25T05:53:48;18.50;;;5.03;;
8100;SDS011;4093;53.470;9.832;2023-04-25T05:56:16;11.37;;;3.63;;
8100;SDS011;4093;53.470;9.832;2023-04-25T05:58:45;16.67;;;4.50;;
8100;SDS011;4093;53.470;9.832;2023-04-25T06:01:13;11.40;;;3.73;;
8100;SDS011;4093;53.470;9.832;2023-04-25T06:03:41;12.23;;;3.90;;
8100;SDS011;4093;53.470;9.832;2023-04-25T06:06:10;11.57;;;3.53;;
8100;SDS011;4093;53.470;9.832;2023-04-25T06:08:38;13.97;;;4.10;;
8100;SDS011;4093;53.470;9.832;2023-04-25T06:11:06;22.10;;;4.57;;
8100;SDS011;4093;53.470;9.832;2023-04-25T06:13:34;15.10;;;4.27;;
8100;SDS011;4093;53.470;9.832;2023-04-25T06:16:03;14.10;;;4.50;;
8100;SDS011;4093;53.470;9.832;2023-04-25T06:18:31;12.33;;;4.90;;
8100;SDS011;4093;53.470;9.832;2023-04-25T06:20:59;13.90;;;4.23;;
8100;SDS011;4093;53.470;9.832;2023-04-25T06:23:26;13.23;;;4.43;;
8100;SDS011;4093;53.470;9.832;2023-04-25T06:25:54;13.67;;;4.70;;
8100;SDS011;4093;53.470;9.832;2023-04-25T06:28:22;11.80;;;3.90;;
8100;SDS011;4093;53.470;9.832;2023-04-25T06:30:50;10.00;;;3.83;;
8100;SDS011;4093;53.470;9.832;2023-04-25T06:33:19;10.50;;;4.00;;
8100;SDS011;4093;53.470;9.832;2023-04-25T06:35:47;13.97;;;4.93;;
8100;SDS011;4093;53.470;9.832;2023-04-25T06:38:15;7.13;;;3.33;;
8100;SDS011;4093;53.470;9.832;2023-04-25T06:40:43;10.77;;;3.63;;
8100;SDS011;4093;53.470;9.832;2023-04-25T06:43:10;14.47;;;4.87;;
8100;SDS011;4093;53.470;9.832;2023-04-25T06:45:38;12.60;;;3.77;;
8100;SDS011;4093;53.470;9.832;2023-04-25T06:48:06;12.73;;;3.90;;
8100;SDS011;4093;53.470;9.832;2023-04-25T06:50:35;15.53;;;3.87;;
8100;SDS011;4093;53.470;9.832;2023-04-25T06:53:03;15.07;;;4.73;;
8100;SDS011;4093;53.470;9.832;2023-04-25T06:55:31;13.50;;;4.67;;
8100;SDS011;4093;53.470;9.832;2023-04-25T06:57:58;14.13;;;4.27;;
8100;SDS011;4093;53.470;9.832;2023-04-25T07:00:26;9.40;;;3.97;;
8100;SDS011;4093;53.470;9.832;2023-04-25T07:02:54;11.07;;;3.97;;
8100;SDS011;4093;53.470;9.832;2023-04-25T07:05:23;9.37;;;3.97;;
8100;SDS011;4093;53.470;9.832;2023-04-25T07:07:52;15.53;;;4.23;;
8100;SDS011;4093;53.470;9.832;2023-04-25T07:10:20;11.77;;;4.07;;
8100;SDS011;4093;53.470;9.832;2023-04-25T07:12:47;13.87;;;4.37;;
8100;SDS011;4093;53.470;9.832;2023-04-25T07:15:15;14.80;;;4.27;;
8100;SDS011;4093;53.470;9.832;2023-04-25T07:17:43;15.50;;;4.27;;
8100;SDS011;4093;53.470;9.832;2023-04-25T07:20:11;11.03;;;4.20;;
8100;SDS011;4093;53.470;9.832;2023-04-25T07:22:39;15.03;;;4.27;;
8100;SDS011;4093;53.470;9.832;2023-04-25T07:25:08;15.53;;;4.50;;
8100;SDS011;4093;53.470;9.832;2023-04-25T07:27:36;10.67;;;4.03;;
8100;SDS011;4093;53.470;9.832;2023-04-25T07:30:05;10.20;;;3.77;;
8100;SDS011;4093;53.470;9.832;2023-04-25T07:32:34;12.33;;;4.00;;
8100;SDS011;4093;53.470;9.832;2023-04-25T07:35:02;10.40;;;3.90;;
8100;SDS011;4093;53.470;9.832;2023-04-25T07:37:30;8.53;;;3.03;;
8100;SDS011;4093;53.470;9.832;2023-04-25T07:39:58;8.87;;;3.90;;
8100;SDS011;4093;53.470;9.832;2023-04-25T07:42:27;8.13;;;3.40;;
8100;SDS011;4093;53.470;9.832;2023-04-25T07:44:54;9.80;;;3.00;;
8100;SDS011;4093;53.470;9.832;2023-04-25T07:47:22;9.27;;;2.97;;
8100;SDS011;4093;53.470;9.832;2023-04-25T07:49:50;10.77;;;3.10;;
8100;SDS011;4093;53.470;9.832;2023-04-25T07:52:18;11.10;;;3.10;;
8100;SDS011;4093;53.470;9.832;2023-04-25T07:54:45;9.23;;;2.73;;
8100;SDS011;4093;53.470;9.832;2023-04-25T07:57:13;6.93;;;2.27;;
8100;SDS011;4093;53.470;9.832;2023-04-25T07:59:44;6.67;;;2.30;;
8100;SDS011;4093;53.470;9.832;2023-04-25T08:02:12;7.43;;;2.93;;
8100;SDS011;4093;53.470;9.832;2023-04-25T08:04:40;8.50;;;3.30;;
8100;SDS011;4093;53.470;9.832;2023-04-25T08:07:08;7.57;;;2.70;;
8100;SDS011;4093;53.470;9.832;2023-04-25T08:09:36;8.07;;;2.70;;
8100;SDS011;4093;53.470;9.832;2023-04-25T08:12:03;5.17;;;2.60;;
8100;SDS011;4093;53.470;9.832;2023-04-25T08:14:31;6.83;;;2.70;;
8100;SDS011;4093;53.470;9.832;2023-04-25T08:17:03;8.90;;;2.90;;
8100;SDS011;4093;53.470;9.832;2023-04-25T08:19:31;10.63;;;2.70;;
8100;SDS011;4093;53.470;9.832;2023-04-25T08:21:59;14.33;;;3.07;;
8100;SDS011;4093;53.470;9.832;2023-04-25T08:24:26;8.80;;;2.70;;
8100;SDS011;4093;53.470;9.832;2023-04-25T08:26:54;6.03;;;2.50;;
8100;SDS011;4093;53.470;9.832;2023-04-25T08:29:22;4.97;;;2.33;;
8100;SDS011;4093;53.470;9.832;2023-04-25T08:31:51;5.40;;;2.50;;
8100;SDS011;4093;53.470;9.832;2023-04-25T08:34:21;6.13;;;2.50;;
8100;SDS011;4093;53.470;9.832;2023-04-25T08:36:48;5.43;;;2.77;;
8100;SDS011;4093;53.470;9.832;2023-04-25T08:39:17;9.23;;;2.80;;
8100;SDS011;4093;53.470;9.832;2023-04-25T08:41:44;7.00;;;2.80;;
8100;SDS011;4093;53.470;9.832;2023-04-25T08:44:12;9.00;;;2.83;;
8100;SDS011;4093;53.470;9.832;2023-04-25T08:46:41;7.97;;;2.60;;
8100;SDS011;4093;53.470;9.832;2023-04-25T08:49:10;9.53;;;2.80;;
8100;SDS011;4093;53.470;9.832;2023-04-25T08:51:45;10.07;;;3.07;;
8100;SDS011;4093;53.470;9.832;2023-04-25T08:54:14;13.77;;;3.40;;
8100;SDS011;4093;53.470;9.832;2023-04-25T08:57:01;10.93;;;3.10;;
8100;SDS011;4093;53.470;9.832;2023-04-25T08:59:31;9.30;;;2.80;;
8100;SDS011;4093;53.470;9.832;2023-04-25T09:02:01;8.47;;;2.70;;
8100;SDS011;4093;53.470;9.832;2023-04-25T09:04:29;4.03;;;2.07;;
8100;SDS011;4093;53.470;9.832;2023-04-25T09:06:59;4.47;;;2.30;;
8100;SDS011;4093;53.470;9.832;2023-04-25T09:09:27;5.63;;;2.50;;
8100;SDS011;4093;53.470;9.832;2023-04-25T09:11:55;8.20;;;2.50;;
8100;SDS011;4093;53.470;9.832;2023-04-25T09:14:23;4.93;;;2.50;;
8100;SDS011;4093;53.470;9.832;2023-04-25T09:16:58;7.10;;;2.57;;
8100;SDS011;4093;53.470;9.832;2023-04-25T09:19:28;8.33;;;2.87;;
8100;SDS011;4093;53.470;9.832;2023-04-25T09:22:08;9.70;;;2.63;;
8100;SDS011;4093;53.470;9.832;2023-04-25T09:24:37;6.67;;;2.30;;
8100;SDS011;4093;53.470;9.832;2023-04-25T09:27:07;7.37;;;2.67;;
8100;SDS011;4093;53.470;9.832;2023-04-25T09:29:37;7.33;;;2.50;;
8100;SDS011;4093;53.470;9.832;2023-04-25T09:32:15;10.37;;;2.43;;
8100;SDS011;4093;53.470;9.832;2023-04-25T09:34:46;7.80;;;2.90;;
8100;SDS011;4093;53.470;9.832;2023-04-25T09:37:19;11.07;;;2.90;;
8100;SDS011;4093;53.470;9.832;2023-04-25T09:39:50;9.30;;;2.97;;
8100;SDS011;4093;53.470;9.832;2023-04-25T09:42:18;9.93;;;2.90;;
8100;SDS011;4093;53.470;9.832;2023-04-25T09:44:51;7.40;;;2.47;;
8100;SDS011;4093;53.470;9.832;2023-04-25T09:47:19;7.07;;;2.53;;
8100;SDS011;4093;53.470;9.832;2023-04-25T09:49:50;10.33;;;3.10;;
8100;SDS011;4093;53.470;9.832;2023-04-25T09:52:20;9.00;;;3.10;;
8100;SDS011;4093;53.470;9.832;2023-04-25T09:54:51;5.77;;;2.67;;
8100;SDS011;4093;53.470;9.832;2023-04-25T09:57:20;4.03;;;2.23;;
8100;SDS011;4093;53.470;9.832;2023-04-25T09:59:49;4.97;;;2.30;;
8100;SDS011;4093;53.470;9.832;2023-04-25T10:02:20;7.17;;;2.30;;
8100;SDS011;4093;53.470;9.832;2023-04-25T10:04:50;8.30;;;3.00;;
8100;SDS011;4093;53.470;9.832;2023-04-25T10:07:23;6.97;;;2.47;;
8100;SDS011;4093;53.470;9.832;2023-04-25T10:09:55;7.93;;;2.70;;
8100;SDS011;4093;53.470;9.832;2023-04-25T10:12:26;8.43;;;3.10;;
8100;SDS011;4093;53.470;9.832;2023-04-25T10:14:54;9.07;;;2.60;;
8100;SDS011;4093;53.470;9.832;2023-04-25T10:17:22;8.87;;;2.90;;
8100;SDS011;4093;53.470;9.832;2023-04-25T10:19:50;9.97;;;2.90;;
8100;SDS011;4093;53.470;9.832;2023-04-25T10:22:20;4.70;;;2.60;;
8100;SDS011;4093;53.470;9.832;2023-04-25T10:24:56;7.40;;;2.87;;
8100;SDS011;4093;53.470;9.832;2023-04-25T10:27:24;7.33;;;2.53;;
8100;SDS011;4093;53.470;9.832;2023-04-25T10:30:00;11.23;;;3.10;;
8100;SDS011;4093;53.470;9.832;2023-04-25T10:32:30;6.20;;;2.67;;
8100;SDS011;4093;53.470;9.832;2023-04-25T10:35:06;8.77;;;2.20;;
8100;SDS011;4093;53.470;9.832;2023-04-25T10:37:39;4.80;;;1.83;;
8100;SDS011;4093;53.470;9.832;2023-04-25T10:40:24;5.27;;;2.00;;
8100;SDS011;4093;53.470;9.832;2023-04-25T10:42:52;7.03;;;2.30;;
8100;SDS011;4093;53.470;9.832;2023-04-25T10:45:20;4.83;;;2.57;;
8100;SDS011;4093;53.470;9.832;2023-04-25T10:47:48;9.20;;;3.00;;
8100;SDS011;4093;53.470;9.832;2023-04-25T10:50:16;9.77;;;2.60;;
8100;SDS011;4093;53.470;9.832;2023-04-25T10:52:45;4.53;;;2.10;;
8100;SDS011;4093;53.470;9.832;2023-04-25T10:55:12;4.30;;;2.10;;
8100;SDS011;4093;53.470;9.832;2023-04-25T10:57:41;9.77;;;2.93;;
8100;SDS011;4093;53.470;9.832;2023-04-25T11:00:13;7.47;;;2.50;;
8100;SDS011;4093;53.470;9.832;2023-04-25T11:02:43;9.77;;;2.93;;
8100;SDS011;4093;53.470;9.832;2023-04-25T11:05:20;5.07;;;2.07;;
8100;SDS011;4093;53.470;9.832;2023-04-25T11:07:54;8.20;;;2.70;;
8100;SDS011;4093;53.470;9.832;2023-04-25T11:10:33;4.80;;;2.27;;
8100;SDS011;4093;53.470;9.832;2023-04-25T11:13:02;7.17;;;3.50;;
8100;SDS011;4093;53.470;9.832;2023-04-25T11:15:31;6.37;;;2.40;;
8100;SDS011;4093;53.470;9.832;2023-04-25T11:17:58;6.63;;;2.17;;
8100;SDS011;4093;53.470;9.832;2023-04-25T11:20:27;9.27;;;2.40;;
8100;SDS011;4093;53.470;9.832;2023-04-25T11:22:59;5.73;;;2.77;;
8100;SDS011;4093;53.470;9.832;2023-04-25T11:25:27;6.97;;;2.53;;
8100;SDS011;4093;53.470;9.832;2023-04-25T11:27:57;8.47;;;2.73;;
8100;SDS011;4093;53.470;9.832;2023-04-25T11:30:26;7.10;;;2.30;;
8100;SDS011;4093;53.470;9.832;2023-04-25T11:32:54;4.30;;;2.23;;
8100;SDS011;4093;53.470;9.832;2023-04-25T11:35:22;6.73;;;2.60;;
8100;SDS011;4093;53.470;9.832;2023-04-25T11:37:51;8.47;;;2.20;;
8100;SDS011;4093;53.470;9.832;2023-04-25T11:40:21;5.13;;;2.27;;
8100;SDS011;4093;53.470;9.832;2023-04-25T11:42:48;4.00;;;1.60;;
8100;SDS011;4093;53.470;9.832;2023-04-25T11:45:20;5.00;;;1.70;;
8100;SDS011;4093;53.470;9.832;2023-04-25T11:47:50;4.00;;;1.80;;
8100;SDS011;4093;53.470;9.832;2023-04-25T11:50:18;9.90;;;2.87;;
8100;SDS011;4093;53.470;9.832;2023-04-25T11:52:46;3.63;;;2.23;;
8100;SDS011;4093;53.470;9.832;2023-04-25T11:55:15;4.50;;;1.83;;
8100;SDS011;4093;53.470;9.832;2023-04-25T11:57:46;3.90;;;2.23;;
8100;SDS011;4093;53.470;9.832;2023-04-25T12:00:16;6.03;;;2.70;;
8100;SDS011;4093;53.470;9.832;2023-04-25T12:02:46;7.83;;;2.47;;
8100;SDS011;4093;53.470;9.832;2023-04-25T12:05:18;7.93;;;2.50;;
8100;SDS011;4093;53.470;9.832;2023-04-25T12:08:09;6.10;;;2.57;;
8100;SDS011;4093;53.470;9.832;2023-04-25T12:10:38;5.77;;;2.50;;
8100;SDS011;4093;53.470;9.832;2023-04-25T12:13:21;5.70;;;2.17;;
8100;SDS011;4093;53.470;9.832;2023-04-25T12:15:49;4.57;;;1.80;;
8100;SDS011;4093;53.470;9.832;2023-04-25T12:18:18;7.83;;;2.57;;
8100;SDS011;4093;53.470;9.832;2023-04-25T12:20:47;5.57;;;2.23;;
8100;SDS011;4093;53.470;9.832;2023-04-25T12:23:15;5.80;;;2.40;;
8100;SDS011;4093;53.470;9.832;2023-04-25T12:25:43;5.17;;;1.93;;
8100;SDS011;4093;53.470;9.832;2023-04-25T12:28:13;7.50;;;2.50;;
8100;SDS011;4093;53.470;9.832;2023-04-25T12:30:53;4.43;;;2.40;;
8100;SDS011;4093;53.470;9.832;2023-04-25T12:33:24;9.23;;;2.53;;
8100;SDS011;4093;53.470;9.832;2023-04-25T12:35:53;7.50;;;2.20;;
8100;SDS011;4093;53.470;9.832;2023-04-25T12:38:24;8.23;;;2.70;;
8100;SDS011;4093;53.470;9.832;2023-04-25T12:40:53;7.50;;;2.43;;
8100;SDS011;4093;53.470;9.832;2023-04-25T12:43:21;8.13;;;2.63;;
8100;SDS011;4093;53.470;9.832;2023-04-25T12:45:49;6.90;;;2.20;;
8100;SDS011;4093;53.470;9.832;2023-04-25T12:48:19;8.27;;;2.13;;
8100;SDS011;4093;53.470;9.832;2023-04-25T12:50:47;9.20;;;2.80;;
8100;SDS011;4093;53.470;9.832;2023-04-25T12:53:16;5.70;;;2.23;;
8100;SDS011;4093;53.470;9.832;2023-04-25T12:55:44;7.53;;;2.83;;
8100;SDS011;4093;53.470;9.832;2023-04-25T12:58:13;7.97;;;2.53;;
8100;SDS011;4093;53.470;9.832;2023-04-25T13:00:40;5.43;;;2.40;;
8100;SDS011;4093;53.470;9.832;2023-04-25T13:03:09;7.30;;;2.63;;
8100;SDS011;4093;53.470;9.832;2023-04-25T13:05:40;7.67;;;2.10;;
8100;SDS011;4093;53.470;9.832;2023-04-25T13:08:08;5.00;;;2.27;;
8100;SDS011;4093;53.470;9.832;2023-04-25T13:10:36;5.93;;;2.27;;
8100;SDS011;4093;53.470;9.832;2023-04-25T13:13:05;6.40;;;2.07;;
8100;SDS011;4093;53.470;9.832;2023-04-25T13:15:33;4.33;;;2.57;;
8100;SDS011;4093;53.470;9.832;2023-04-25T13:18:02;4.80;;;2.57;;
8100;SDS011;4093;53.470;9.832;2023-04-25T13:20:32;6.77;;;2.37;;
8100;SDS011;4093;53.470;9.832;2023-04-25T13:23:01;8.23;;;2.97;;
8100;SDS011;4093;53.470;9.832;2023-04-25T13:25:28;7.40;;;2.70;;
8100;SDS011;4093;53.470;9.832;2023-04-25T13:27:56;9.57;;;2.43;;
8100;SDS011;4093;53.470;9.832;2023-04-25T13:30:24;4.93;;;2.40;;
8100;SDS011;4093;53.470;9.832;2023-04-25T13:32:54;6.07;;;2.50;;
8100;SDS011;4093;53.470;9.832;2023-04-25T13:35:23;5.20;;;2.53;;
8100;SDS011;4093;53.470;9.832;2023-04-25T13:37:51;4.67;;;2.50;;
8100;SDS011;4093;53.470;9.832;2023-04-25T13:40:20;6.03;;;2.27;;
8100;SDS011;4093;53.470;9.832;2023-04-25T13:42:50;8.27;;;2.37;;
8100;SDS011;4093;53.470;9.832;2023-04-25T13:45:18;3.40;;;2.10;;
8100;SDS011;4093;53.470;9.832;2023-04-25T13:47:46;5.53;;;2.33;;
8100;SDS011;4093;53.470;9.832;2023-04-25T13:50:14;8.13;;;2.53;;
8100;SDS011;4093;53.470;9.832;2023-04-25T13:52:42;6.97;;;2.60;;
8100;SDS011;4093;53.470;9.832;2023-04-25T13:55:11;7.50;;;2.50;;
8100;SDS011;4093;53.470;9.832;2023-04-25T13:57:40;8.47;;;2.37;;
8100;SDS011;4093;53.470;9.832;2023-04-25T14:00:08;5.63;;;2.47;;
8100;SDS011;4093;53.470;9.832;2023-04-25T14:02:37;8.57;;;2.47;;
8100;SDS011;4093;53.470;9.832;2023-04-25T14:05:05;4.57;;;2.40;;
8100;SDS011;4093;53.470;9.832;2023-04-25T14:07:35;8.60;;;3.00;;
8100;SDS011;4093;53.470;9.832;2023-04-25T14:10:04;6.50;;;2.50;;
8100;SDS011;4093;53.470;9.832;2023-04-25T14:12:33;6.83;;;2.40;;
8100;SDS011;4093;53.470;9.832;2023-04-25T14:15:03;9.30;;;3.03;;
8100;SDS011;4093;53.470;9.832;2023-04-25T14:17:31;12.20;;;2.80;;
8100;SDS011;4093;53.470;9.832;2023-04-25T14:19:59;10.37;;;2.93;;
8100;SDS011;4093;53.470;9.832;2023-04-25T14:22:26;7.97;;;2.83;;
8100;SDS011;4093;53.470;9.832;2023-04-25T14:24:54;6.70;;;2.70;;
8100;SDS011;4093;53.470;9.832;2023-04-25T14:27:22;8.13;;;3.27;;
8100;SDS011;4093;53.470;9.832;2023-04-25T14:29:50;7.87;;;2.77;;
8100;SDS011;4093;53.470;9.832;2023-04-25T14:32:19;7.30;;;2.90;;
8100;SDS011;4093;53.470;9.832;2023-04-25T14:34:47;3.77;;;2.37;;
8100;SDS011;4093;53.470;9.832;2023-04-25T14:37:15;6.23;;;2.60;;
8100;SDS011;4093;53.470;9.832;2023-04-25T14:39:42;6.43;;;2.60;;
8100;SDS011;4093;53.470;9.832;2023-04-25T14:42:11;10.27;;;3.30;;
8100;SDS011;4093;53.470;9.832;2023-04-25T14:44:39;5.07;;;2.30;;
8100;SDS011;4093;53.470;9.832;2023-04-25T14:47:07;9.70;;;2.73;;
8100;SDS011;4093;53.470;9.832;2023-04-25T14:49:36;3.53;;;2.40;;
8100;SDS011;4093;53.470;9.832;2023-04-25T14:52:04;6.37;;;2.30;;
8100;SDS011;4093;53.470;9.832;2023-04-25T14:54:32;5.10;;;2.57;;
8100;SDS011;4093;53.470;9.832;2023-04-25T14:57:00;6.57;;;2.60;;
8100;SDS011;4093;53.470;9.832;2023-04-25T14:59:28;6.00;;;2.40;;
8100;SDS011;4093;53.470;9.832;2023-04-25T15:01:56;9.07;;;2.37;;
8100;SDS011;4093;53.470;9.832;2023-04-25T15:04:25;7.17;;;2.73;;
8100;SDS011;4093;53.470;9.832;2023-04-25T15:06:55;4.63;;;2.00;;
8100;SDS011;4093;53.470;9.832;2023-04-25T15:09:23;7.30;;;2.40;;
8100;SDS011;4093;53.470;9.832;2023-04-25T15:11:51;6.10;;;2.30;;
8100;SDS011;4093;53.470;9.832;2023-04-25T15:14:18;4.47;;;2.47;;
8100;SDS011;4093;53.470;9.832;2023-04-25T15:16:46;3.13;;;1.80;;